sensor_id;sensor_type;location;lat;lon;timestamp;P1;durP1;ratioP1;P2;durP2;ratioP2
64834;SDS011;51293;59.296;18.006;2022-08-04T00:08:13;5.22;;;3.22;;
64834;SDS011;51293;59.296;18.006;2022-08-04T00:10:59;6.68;;;3.75;;
64834;SDS011;51293;59.296;18.006;2022-08-04T00:13:27;8.02;;;3.58;;
64834;SDS011;51293;59.296;18.006;2022-08-04T00:15:58;8.00;;;3.65;;
64834;SDS011;51293;59.296;18.006;2022-08-04T00:18:32;12.10;;;3.33;;
64834;SDS011;51293;59.296;18.006;2022-08-04T00:20:59;7.57;;;3.40;;
64834;SDS011;51293;59.296;18.006;2022-08-04T00:23:29;7.10;;;3.40;;
64834;SDS011;51293;59.296;18.006;2022-08-04T00:25:58;7.40;;;3.47;;
64834;SDS011;51293;59.296;18.006;2022-08-04T00:28:24;7.32;;;3.33;;
64834;SDS011;51293;59.296;18.006;2022-08-04T00:30:50;7.40;;;3.08;;
64834;SDS011;51293;59.296;18.006;2022-08-04T00:33:20;8.18;;;3.63;;
64834;SDS011;51293;59.296;18.006;2022-08-04T00:35:49;6.00;;;3.10;;
64834;SDS011;51293;59.296;18.006;2022-08-04T00:38:16;8.95;;;3.20;;
64834;SDS011;51293;59.296;18.006;2022-08-04T00:43:32;8.52;;;3.20;;
64834;SDS011;51293;59.296;18.006;2022-08-04T00:51:32;5.70;;;3.25;;
64834;SDS011;51293;59.296;18.006;2022-08-04T00:54:23;10.35;;;3.38;;
64834;SDS011;51293;59.296;18.006;2022-08-04T00:57:02;5.75;;;3.22;;
64834;SDS011;51293;59.296;18.006;2022-08-04T01:04:53;9.43;;;3.55;;
64834;SDS011;51293;59.296;18.006;2022-08-04T01:13:40;7.65;;;3.25;;
64834;SDS011;51293;59.296;18.006;2022-08-04T01:16:08;8.50;;;3.38;;
64834;SDS011;51293;59.296;18.006;2022-08-04T01:29:22;10.90;;;3.40;;
64834;SDS011;51293;59.296;18.006;2022-08-04T01:34:26;8.90;;;3.40;;
64834;SDS011;51293;59.296;18.006;2022-08-04T01:37:00;10.55;;;3.50;;
64834;SDS011;51293;59.296;18.006;2022-08-04T01:39:34;7.57;;;3.33;;
64834;SDS011;51293;59.296;18.006;2022-08-04T01:42:08;5.85;;;3.50;;
64834;SDS011;51293;59.296;18.006;2022-08-04T01:44:36;8.63;;;3.60;;
64834;SDS011;51293;59.296;18.006;2022-08-04T01:47:03;6.75;;;3.45;;
64834;SDS011;51293;59.296;18.006;2022-08-04T01:49:31;6.93;;;3.40;;
64834;SDS011;51293;59.296;18.006;2022-08-04T01:51:57;7.60;;;3.45;;
64834;SDS011;51293;59.296;18.006;2022-08-04T01:54:23;7.22;;;3.53;;
64834;SDS011;51293;59.296;18.006;2022-08-04T01:56:50;10.02;;;3.42;;
64834;SDS011;51293;59.296;18.006;2022-08-04T01:59:19;7.80;;;3.60;;
64834;SDS011;51293;59.296;18.006;2022-08-04T02:01:46;6.75;;;3.28;;
64834;SDS011;51293;59.296;18.006;2022-08-04T02:04:14;8.38;;;3.38;;
64834;SDS011;51293;59.296;18.006;2022-08-04T02:09:38;7.13;;;3.75;;
64834;SDS011;51293;59.296;18.006;2022-08-04T02:12:34;7.80;;;3.70;;
64834;SDS011;51293;59.296;18.006;2022-08-04T02:18:02;9.95;;;3.97;;
64834;SDS011;51293;59.296;18.006;2022-08-04T02:23:08;7.65;;;3.28;;
64834;SDS011;51293;59.296;18.006;2022-08-04T02:26:01;9.27;;;3.78;;
64834;SDS011;51293;59.296;18.006;2022-08-04T02:28:47;11.23;;;3.38;;
64834;SDS011;51293;59.296;18.006;2022-08-04T02:31:23;11.18;;;3.35;;
64834;SDS011;51293;59.296;18.006;2022-08-04T02:34:16;7.30;;;3.40;;
64834;SDS011;51293;59.296;18.006;2022-08-04T02:39:24;10.05;;;3.78;;
64834;SDS011;51293;59.296;18.006;2022-08-04T02:41:54;9.75;;;3.33;;
64834;SDS011;51293;59.296;18.006;2022-08-04T02:44:21;5.60;;;3.50;;
64834;SDS011;51293;59.296;18.006;2022-08-04T02:46:50;8.50;;;3.40;;
64834;SDS011;51293;59.296;18.006;2022-08-04T02:49:16;6.13;;;3.10;;
64834;SDS011;51293;59.296;18.006;2022-08-04T02:51:44;9.80;;;3.47;;
64834;SDS011;51293;59.296;18.006;2022-08-04T02:54:15;7.15;;;3.33;;
64834;SDS011;51293;59.296;18.006;2022-08-04T02:56:42;11.00;;;3.90;;
64834;SDS011;51293;59.296;18.006;2022-08-04T02:59:10;7.75;;;3.28;;
64834;SDS011;51293;59.296;18.006;2022-08-04T03:01:37;7.03;;;3.17;;
64834;SDS011;51293;59.296;18.006;2022-08-04T03:27:19;6.32;;;3.20;;
64834;SDS011;51293;59.296;18.006;2022-08-04T03:30:05;4.90;;;2.63;;
64834;SDS011;51293;59.296;18.006;2022-08-04T03:43:46;4.70;;;2.85;;
64834;SDS011;51293;59.296;18.006;2022-08-04T03:46:47;9.18;;;2.65;;
64834;SDS011;51293;59.296;18.006;2022-08-04T03:49:41;6.53;;;2.50;;
64834;SDS011;51293;59.296;18.006;2022-08-04T03:55:38;7.88;;;2.58;;
64834;SDS011;51293;59.296;18.006;2022-08-04T04:12:13;12.43;;;3.08;;
64834;SDS011;51293;59.296;18.006;2022-08-04T04:15:07;7.55;;;2.63;;
64834;SDS011;51293;59.296;18.006;2022-08-04T04:17:48;8.77;;;3.00;;
64834;SDS011;51293;59.296;18.006;2022-08-04T04:20:32;5.32;;;2.58;;
64834;SDS011;51293;59.296;18.006;2022-08-04T04:28:54;7.65;;;2.80;;
64834;SDS011;51293;59.296;18.006;2022-08-04T04:40:58;8.38;;;2.80;;
64834;SDS011;51293;59.296;18.006;2022-08-04T04:46:26;7.22;;;2.88;;
64834;SDS011;51293;59.296;18.006;2022-08-04T04:56:58;6.07;;;2.63;;
64834;SDS011;51293;59.296;18.006;2022-08-04T04:59:31;6.97;;;2.80;;
64834;SDS011;51293;59.296;18.006;2022-08-04T05:12:38;9.52;;;2.90;;
64834;SDS011;51293;59.296;18.006;2022-08-04T05:15:26;5.95;;;2.70;;
64834;SDS011;51293;59.296;18.006;2022-08-04T05:17:55;7.95;;;2.95;;
64834;SDS011;51293;59.296;18.006;2022-08-04T05:20:25;5.32;;;2.35;;
64834;SDS011;51293;59.296;18.006;2022-08-04T05:25:26;4.93;;;2.42;;
64834;SDS011;51293;59.296;18.006;2022-08-04T05:28:14;6.13;;;2.60;;
64834;SDS011;51293;59.296;18.006;2022-08-04T05:30:45;8.73;;;2.60;;
64834;SDS011;51293;59.296;18.006;2022-08-04T05:33:21;11.75;;;2.70;;
64834;SDS011;51293;59.296;18.006;2022-08-04T05:35:53;8.77;;;2.63;;
64834;SDS011;51293;59.296;18.006;2022-08-04T05:38:22;8.82;;;2.45;;
64834;SDS011;51293;59.296;18.006;2022-08-04T05:40:50;6.32;;;2.40;;
64834;SDS011;51293;59.296;18.006;2022-08-04T05:43:17;7.78;;;2.50;;
64834;SDS011;51293;59.296;18.006;2022-08-04T05:45:44;9.40;;;2.85;;
64834;SDS011;51293;59.296;18.006;2022-08-04T05:48:12;6.80;;;2.75;;
64834;SDS011;51293;59.296;18.006;2022-08-04T05:50:38;9.10;;;2.78;;
64834;SDS011;51293;59.296;18.006;2022-08-04T05:53:04;9.15;;;2.83;;
64834;SDS011;51293;59.296;18.006;2022-08-04T05:55:30;5.70;;;2.45;;
64834;SDS011;51293;59.296;18.006;2022-08-04T05:57:56;6.30;;;2.50;;
64834;SDS011;51293;59.296;18.006;2022-08-04T06:00:23;9.23;;;2.70;;
64834;SDS011;51293;59.296;18.006;2022-08-04T06:02:51;8.38;;;2.42;;
64834;SDS011;51293;59.296;18.006;2022-08-04T06:05:17;8.85;;;2.58;;
64834;SDS011;51293;59.296;18.006;2022-08-04T06:07:44;7.50;;;2.55;;
64834;SDS011;51293;59.296;18.006;2022-08-04T06:10:10;7.60;;;2.58;;
64834;SDS011;51293;59.296;18.006;2022-08-04T06:12:37;6.40;;;2.20;;
64834;SDS011;51293;59.296;18.006;2022-08-04T06:15:04;5.03;;;2.42;;
64834;SDS011;51293;59.296;18.006;2022-08-04T06:17:33;6.30;;;2.22;;
64834;SDS011;51293;59.296;18.006;2022-08-04T06:20:02;5.47;;;2.22;;
64834;SDS011;51293;59.296;18.006;2022-08-04T06:22:29;6.65;;;2.30;;
64834;SDS011;51293;59.296;18.006;2022-08-04T06:24:58;8.95;;;2.42;;
64834;SDS011;51293;59.296;18.006;2022-08-04T06:27:27;6.78;;;2.28;;
64834;SDS011;51293;59.296;18.006;2022-08-04T06:29:55;6.47;;;2.28;;
64834;SDS011;51293;59.296;18.006;2022-08-04T06:32:23;6.47;;;2.00;;
64834;SDS011;51293;59.296;18.006;2022-08-04T06:35:02;5.15;;;1.90;;
64834;SDS011;51293;59.296;18.006;2022-08-04T06:37:30;6.50;;;2.05;;
64834;SDS011;51293;59.296;18.006;2022-08-04T06:39:58;6.85;;;2.17;;
64834;SDS011;51293;59.296;18.006;2022-08-04T06:42:27;5.28;;;2.10;;
64834;SDS011;51293;59.296;18.006;2022-08-04T06:44:54;7.65;;;2.20;;
64834;SDS011;51293;59.296;18.006;2022-08-04T06:47:22;9.82;;;2.28;;
64834;SDS011;51293;59.296;18.006;2022-08-04T06:49:49;7.70;;;2.20;;
64834;SDS011;51293;59.296;18.006;2022-08-04T06:52:18;8.88;;;2.00;;
64834;SDS011;51293;59.296;18.006;2022-08-04T06:54:44;5.15;;;2.08;;
64834;SDS011;51293;59.296;18.006;2022-08-04T06:57:15;5.55;;;1.83;;
64834;SDS011;51293;59.296;18.006;2022-08-04T06:59:44;6.80;;;2.00;;
64834;SDS011;51293;59.296;18.006;2022-08-04T07:02:17;9.48;;;2.03;;
64834;SDS011;51293;59.296;18.006;2022-08-04T07:04:47;8.35;;;2.35;;
64834;SDS011;51293;59.296;18.006;2022-08-04T07:07:13;3.63;;;1.75;;
64834;SDS011;51293;59.296;18.006;2022-08-04T07:09:39;7.25;;;1.70;;
64834;SDS011;51293;59.296;18.006;2022-08-04T07:12:06;5.13;;;2.00;;
64834;SDS011;51293;59.296;18.006;2022-08-04T07:14:32;5.25;;;1.95;;
64834;SDS011;51293;59.296;18.006;2022-08-04T07:17:01;3.58;;;1.73;;
64834;SDS011;51293;59.296;18.006;2022-08-04T07:19:29;3.97;;;1.70;;
64834;SDS011;51293;59.296;18.006;2022-08-04T07:21:56;7.07;;;1.80;;
64834;SDS011;51293;59.296;18.006;2022-08-04T07:24:28;5.18;;;1.95;;
64834;SDS011;51293;59.296;18.006;2022-08-04T07:26:54;3.85;;;1.60;;
64834;SDS011;51293;59.296;18.006;2022-08-04T07:29:19;4.50;;;1.58;;
64834;SDS011;51293;59.296;18.006;2022-08-04T07:31:46;3.55;;;1.80;;
64834;SDS011;51293;59.296;18.006;2022-08-04T07:34:13;5.85;;;1.77;;
64834;SDS011;51293;59.296;18.006;2022-08-04T07:36:39;2.50;;;1.60;;
64834;SDS011;51293;59.296;18.006;2022-08-04T07:39:04;3.65;;;1.73;;
64834;SDS011;51293;59.296;18.006;2022-08-04T07:41:30;3.30;;;1.70;;
64834;SDS011;51293;59.296;18.006;2022-08-04T07:43:55;4.93;;;1.55;;
64834;SDS011;51293;59.296;18.006;2022-08-04T07:46:21;4.30;;;1.73;;
64834;SDS011;51293;59.296;18.006;2022-08-04T07:48:48;3.42;;;1.73;;
64834;SDS011;51293;59.296;18.006;2022-08-04T07:51:14;4.72;;;2.10;;
64834;SDS011;51293;59.296;18.006;2022-08-04T07:53:40;3.88;;;1.70;;
64834;SDS011;51293;59.296;18.006;2022-08-04T07:56:06;3.03;;;1.60;;
64834;SDS011;51293;59.296;18.006;2022-08-04T07:58:32;4.30;;;1.60;;
64834;SDS011;51293;59.296;18.006;2022-08-04T08:00:58;4.43;;;1.75;;
64834;SDS011;51293;59.296;18.006;2022-08-04T08:03:24;4.53;;;1.73;;
64834;SDS011;51293;59.296;18.006;2022-08-04T08:05:51;3.28;;;1.50;;
64834;SDS011;51293;59.296;18.006;2022-08-04T08:08:16;8.30;;;1.55;;
64834;SDS011;51293;59.296;18.006;2022-08-04T08:10:45;2.53;;;1.40;;
64834;SDS011;51293;59.296;18.006;2022-08-04T08:13:12;4.07;;;1.48;;
64834;SDS011;51293;59.296;18.006;2022-08-04T08:15:37;4.38;;;1.75;;
64834;SDS011;51293;59.296;18.006;2022-08-04T08:18:04;6.97;;;1.95;;
64834;SDS011;51293;59.296;18.006;2022-08-04T08:20:29;3.22;;;1.55;;
64834;SDS011;51293;59.296;18.006;2022-08-04T08:22:56;4.63;;;1.77;;
64834;SDS011;51293;59.296;18.006;2022-08-04T08:25:23;4.28;;;1.83;;
64834;SDS011;51293;59.296;18.006;2022-08-04T08:27:48;4.90;;;1.70;;
64834;SDS011;51293;59.296;18.006;2022-08-04T08:30:14;5.78;;;1.63;;
64834;SDS011;51293;59.296;18.006;2022-08-04T08:32:39;8.43;;;1.50;;
64834;SDS011;51293;59.296;18.006;2022-08-04T08:35:05;4.13;;;1.52;;
64834;SDS011;51293;59.296;18.006;2022-08-04T08:37:37;4.55;;;1.58;;
64834;SDS011;51293;59.296;18.006;2022-08-04T08:40:24;1.98;;;1.35;;
64834;SDS011;51293;59.296;18.006;2022-08-04T08:48:59;3.55;;;1.45;;
64834;SDS011;51293;59.296;18.006;2022-08-04T08:57:19;7.53;;;1.60;;
64834;SDS011;51293;59.296;18.006;2022-08-04T09:08:26;3.05;;;1.30;;
64834;SDS011;51293;59.296;18.006;2022-08-04T09:11:11;3.65;;;1.30;;
64834;SDS011;51293;59.296;18.006;2022-08-04T09:16:14;3.92;;;1.42;;
64834;SDS011;51293;59.296;18.006;2022-08-04T09:24:07;5.75;;;1.40;;
64834;SDS011;51293;59.296;18.006;2022-08-04T09:26:50;4.57;;;1.33;;
64834;SDS011;51293;59.296;18.006;2022-08-04T09:37:39;2.53;;;1.40;;
64834;SDS011;51293;59.296;18.006;2022-08-04T09:40:19;9.30;;;1.73;;
64834;SDS011;51293;59.296;18.006;2022-08-04T09:43:28;2.25;;;1.58;;
64834;SDS011;51293;59.296;18.006;2022-08-04T09:49:13;3.58;;;1.48;;
64834;SDS011;51293;59.296;18.006;2022-08-04T09:51:42;4.97;;;1.40;;
64834;SDS011;51293;59.296;18.006;2022-08-04T09:54:21;6.10;;;1.33;;
64834;SDS011;51293;59.296;18.006;2022-08-04T09:56:53;1.92;;;1.10;;
64834;SDS011;51293;59.296;18.006;2022-08-04T09:59:35;4.80;;;1.45;;
64834;SDS011;51293;59.296;18.006;2022-08-04T10:02:08;3.90;;;1.45;;
64834;SDS011;51293;59.296;18.006;2022-08-04T10:04:38;4.18;;;1.42;;
64834;SDS011;51293;59.296;18.006;2022-08-04T10:07:18;4.90;;;1.60;;
64834;SDS011;51293;59.296;18.006;2022-08-04T10:29:29;3.28;;;1.30;;
64834;SDS011;51293;59.296;18.006;2022-08-04T10:35:00;3.60;;;1.40;;
64834;SDS011;51293;59.296;18.006;2022-08-04T10:37:28;3.97;;;1.55;;
64834;SDS011;51293;59.296;18.006;2022-08-04T10:40:04;2.45;;;1.60;;
64834;SDS011;51293;59.296;18.006;2022-08-04T10:46:06;4.57;;;1.60;;
64834;SDS011;51293;59.296;18.006;2022-08-04T10:48:42;1.77;;;1.20;;
64834;SDS011;51293;59.296;18.006;2022-08-04T10:53:59;1.98;;;1.30;;
64834;SDS011;51293;59.296;18.006;2022-08-04T10:59:21;3.20;;;1.50;;
64834;SDS011;51293;59.296;18.006;2022-08-04T11:01:57;3.35;;;1.35;;
64834;SDS011;51293;59.296;18.006;2022-08-04T11:04:41;3.33;;;1.45;;
64834;SDS011;51293;59.296;18.006;2022-08-04T11:07:11;5.60;;;1.38;;
64834;SDS011;51293;59.296;18.006;2022-08-04T11:09:38;6.43;;;1.55;;
64834;SDS011;51293;59.296;18.006;2022-08-04T11:17:25;4.78;;;1.60;;
64834;SDS011;51293;59.296;18.006;2022-08-04T11:22:28;2.38;;;1.35;;
64834;SDS011;51293;59.296;18.006;2022-08-04T11:25:03;5.47;;;1.42;;
64834;SDS011;51293;59.296;18.006;2022-08-04T11:27:42;2.50;;;1.30;;
64834;SDS011;51293;59.296;18.006;2022-08-04T11:30:18;4.15;;;1.40;;
64834;SDS011;51293;59.296;18.006;2022-08-04T11:41:06;2.75;;;1.20;;
64834;SDS011;51293;59.296;18.006;2022-08-04T11:47:01;5.22;;;1.13;;
64834;SDS011;51293;59.296;18.006;2022-08-04T11:51:52;3.13;;;1.40;;
64834;SDS011;51293;59.296;18.006;2022-08-04T11:54:20;2.63;;;1.30;;
64834;SDS011;51293;59.296;18.006;2022-08-04T11:56:46;4.72;;;1.40;;
64834;SDS011;51293;59.296;18.006;2022-08-04T11:59:12;4.85;;;1.55;;
64834;SDS011;51293;59.296;18.006;2022-08-04T12:04:36;4.45;;;1.48;;
64834;SDS011;51293;59.296;18.006;2022-08-04T12:13:07;4.63;;;1.45;;
64834;SDS011;51293;59.296;18.006;2022-08-04T12:15:44;3.88;;;1.23;;
64834;SDS011;51293;59.296;18.006;2022-08-04T12:18:38;2.78;;;1.50;;
64834;SDS011;51293;59.296;18.006;2022-08-04T12:21:10;3.63;;;1.10;;
64834;SDS011;51293;59.296;18.006;2022-08-04T12:23:39;2.72;;;1.25;;
64834;SDS011;51293;59.296;18.006;2022-08-04T12:26:13;3.60;;;1.42;;
64834;SDS011;51293;59.296;18.006;2022-08-04T12:28:45;4.22;;;1.38;;
64834;SDS011;51293;59.296;18.006;2022-08-04T12:37:11;4.20;;;1.40;;
64834;SDS011;51293;59.296;18.006;2022-08-04T12:39:47;7.13;;;1.50;;
64834;SDS011;51293;59.296;18.006;2022-08-04T12:44:43;2.97;;;1.40;;
64834;SDS011;51293;59.296;18.006;2022-08-04T12:47:13;3.33;;;1.33;;
64834;SDS011;51293;59.296;18.006;2022-08-04T12:49:42;3.83;;;1.40;;
64834;SDS011;51293;59.296;18.006;2022-08-04T12:52:10;4.80;;;1.30;;
64834;SDS011;51293;59.296;18.006;2022-08-04T12:54:40;5.00;;;1.40;;
64834;SDS011;51293;59.296;18.006;2022-08-04T12:57:09;3.60;;;1.67;;
64834;SDS011;51293;59.296;18.006;2022-08-04T12:59:42;4.65;;;1.35;;
64834;SDS011;51293;59.296;18.006;2022-08-04T13:02:22;2.40;;;1.52;;
64834;SDS011;51293;59.296;18.006;2022-08-04T13:04:51;2.17;;;1.20;;
64834;SDS011;51293;59.296;18.006;2022-08-04T13:07:20;3.13;;;1.38;;
64834;SDS011;51293;59.296;18.006;2022-08-04T13:09:49;2.53;;;1.40;;
64834;SDS011;51293;59.296;18.006;2022-08-04T13:12:19;2.90;;;1.30;;
64834;SDS011;51293;59.296;18.006;2022-08-04T13:14:49;3.13;;;1.30;;
64834;SDS011;51293;59.296;18.006;2022-08-04T13:17:16;3.28;;;1.30;;
64834;SDS011;51293;59.296;18.006;2022-08-04T13:19:47;3.65;;;1.25;;
64834;SDS011;51293;59.296;18.006;2022-08-04T13:22:15;4.63;;;1.30;;
64834;SDS011;51293;59.296;18.006;2022-08-04T13:24:48;3.20;;;1.10;;
64834;SDS011;51293;59.296;18.006;2022-08-04T13:27:15;3.47;;;1.40;;
64834;SDS011;51293;59.296;18.006;2022-08-04T13:29:43;4.00;;;1.10;;
64834;SDS011;51293;59.296;18.006;2022-08-04T13:32:09;2.50;;;1.30;;
64834;SDS011;51293;59.296;18.006;2022-08-04T13:34:39;5.18;;;1.40;;
64834;SDS011;51293;59.296;18.006;2022-08-04T13:37:06;5.18;;;1.40;;
64834;SDS011;51293;59.296;18.006;2022-08-04T13:39:33;2.30;;;1.30;;
64834;SDS011;51293;59.296;18.006;2022-08-04T13:42:01;3.88;;;1.23;;
64834;SDS011;51293;59.296;18.006;2022-08-04T13:44:33;4.07;;;1.40;;
64834;SDS011;51293;59.296;18.006;2022-08-04T13:47:02;2.22;;;1.30;;
64834;SDS011;51293;59.296;18.006;2022-08-04T13:49:30;3.25;;;1.20;;
64834;SDS011;51293;59.296;18.006;2022-08-04T13:51:57;4.18;;;1.35;;
64834;SDS011;51293;59.296;18.006;2022-08-04T13:54:25;3.28;;;1.33;;
64834;SDS011;51293;59.296;18.006;2022-08-04T13:57:00;2.30;;;1.35;;
64834;SDS011;51293;59.296;18.006;2022-08-04T13:59:32;3.00;;;1.13;;
64834;SDS011;51293;59.296;18.006;2022-08-04T14:02:05;3.83;;;1.38;;
64834;SDS011;51293;59.296;18.006;2022-08-04T14:04:37;2.38;;;1.20;;
64834;SDS011;51293;59.296;18.006;2022-08-04T14:07:11;3.22;;;1.40;;
64834;SDS011;51293;59.296;18.006;2022-08-04T14:09:39;2.85;;;1.27;;
64834;SDS011;51293;59.296;18.006;2022-08-04T14:12:09;2.03;;;1.20;;
64834;SDS011;51293;59.296;18.006;2022-08-04T14:14:43;4.47;;;1.30;;
64834;SDS011;51293;59.296;18.006;2022-08-04T14:17:13;4.20;;;1.25;;
64834;SDS011;51293;59.296;18.006;2022-08-04T14:22:34;4.82;;;1.40;;
64834;SDS011;51293;59.296;18.006;2022-08-04T14:25:02;3.63;;;1.40;;
64834;SDS011;51293;59.296;18.006;2022-08-04T14:30:53;4.60;;;1.52;;
64834;SDS011;51293;59.296;18.006;2022-08-04T14:33:04;3.53;;;1.70;;
64834;SDS011;51293;59.296;18.006;2022-08-04T14:35:34;5.80;;;1.70;;
64834;SDS011;51293;59.296;18.006;2022-08-04T14:38:04;6.20;;;1.70;;
64834;SDS011;51293;59.296;18.006;2022-08-04T14:40:33;7.18;;;1.80;;
64834;SDS011;51293;59.296;18.006;2022-08-04T14:42:59;6.75;;;1.60;;
64834;SDS011;51293;59.296;18.006;2022-08-04T14:45:36;6.50;;;1.50;;
64834;SDS011;51293;59.296;18.006;2022-08-04T14:48:08;4.85;;;1.60;;
64834;SDS011;51293;59.296;18.006;2022-08-04T14:50:40;3.08;;;1.40;;
64834;SDS011;51293;59.296;18.006;2022-08-04T14:53:12;3.13;;;1.70;;
64834;SDS011;51293;59.296;18.006;2022-08-04T14:55:38;6.22;;;1.70;;
64834;SDS011;51293;59.296;18.006;2022-08-04T14:58:06;4.68;;;1.50;;
64834;SDS011;51293;59.296;18.006;2022-08-04T15:00:55;3.92;;;1.70;;
64834;SDS011;51293;59.296;18.006;2022-08-04T15:03:22;4.20;;;1.50;;
64834;SDS011;51293;59.296;18.006;2022-08-04T15:05:49;4.97;;;1.77;;
64834;SDS011;51293;59.296;18.006;2022-08-04T15:08:15;5.38;;;1.60;;
64834;SDS011;51293;59.296;18.006;2022-08-04T15:10:41;3.20;;;1.58;;
64834;SDS011;51293;59.296;18.006;2022-08-04T15:13:10;4.05;;;1.70;;
64834;SDS011;51293;59.296;18.006;2022-08-04T15:15:38;3.03;;;1.65;;
64834;SDS011;51293;59.296;18.006;2022-08-04T15:18:08;5.05;;;2.03;;
64834;SDS011;51293;59.296;18.006;2022-08-04T15:20:35;3.15;;;1.70;;
64834;SDS011;51293;59.296;18.006;2022-08-04T15:23:02;5.82;;;1.80;;
64834;SDS011;51293;59.296;18.006;2022-08-04T15:25:36;4.00;;;1.50;;
64834;SDS011;51293;59.296;18.006;2022-08-04T15:28:05;4.50;;;1.60;;
64834;SDS011;51293;59.296;18.006;2022-08-04T15:30:36;5.70;;;1.85;;
64834;SDS011;51293;59.296;18.006;2022-08-04T15:33:02;2.28;;;1.30;;
64834;SDS011;51293;59.296;18.006;2022-08-04T15:35:29;4.30;;;1.70;;
64834;SDS011;51293;59.296;18.006;2022-08-04T15:37:59;3.60;;;1.48;;
64834;SDS011;51293;59.296;18.006;2022-08-04T15:40:29;5.53;;;1.60;;
64834;SDS011;51293;59.296;18.006;2022-08-04T15:46:12;4.60;;;1.27;;
64834;SDS011;51293;59.296;18.006;2022-08-04T15:48:38;4.40;;;1.40;;
64834;SDS011;51293;59.296;18.006;2022-08-04T15:51:07;2.45;;;1.30;;
64834;SDS011;51293;59.296;18.006;2022-08-04T15:56:05;2.85;;;1.40;;
64834;SDS011;51293;59.296;18.006;2022-08-04T15:58:52;3.05;;;1.33;;
64834;SDS011;51293;59.296;18.006;2022-08-04T16:01:19;3.67;;;1.67;;
64834;SDS011;51293;59.296;18.006;2022-08-04T16:03:45;2.92;;;1.30;;
64834;SDS011;51293;59.296;18.006;2022-08-04T16:08:59;3.23;;;1.40;;
64834;SDS011;51293;59.296;18.006;2022-08-04T16:21:51;2.75;;;1.50;;
64834;SDS011;51293;59.296;18.006;2022-08-04T16:24:21;2.20;;;1.40;;
64834;SDS011;51293;59.296;18.006;2022-08-04T16:26:53;5.25;;;1.63;;
64834;SDS011;51293;59.296;18.006;2022-08-04T16:35:20;2.88;;;1.30;;
64834;SDS011;51293;59.296;18.006;2022-08-04T16:37:51;3.50;;;1.20;;
64834;SDS011;51293;59.296;18.006;2022-08-04T16:40:29;1.73;;;1.25;;
64834;SDS011;51293;59.296;18.006;2022-08-04T16:42:57;2.33;;;1.13;;
64834;SDS011;51293;59.296;18.006;2022-08-04T16:45:43;4.00;;;1.30;;
64834;SDS011;51293;59.296;18.006;2022-08-04T16:48:11;2.92;;;1.52;;
64834;SDS011;51293;59.296;18.006;2022-08-04T16:50:44;4.07;;;1.40;;
64834;SDS011;51293;59.296;18.006;2022-08-04T16:53:13;3.65;;;1.40;;
64834;SDS011;51293;59.296;18.006;2022-08-04T16:55:44;2.70;;;1.35;;
64834;SDS011;51293;59.296;18.006;2022-08-04T16:58:10;3.47;;;1.50;;
64834;SDS011;51293;59.296;18.006;2022-08-04T17:00:37;2.28;;;1.30;;
64834;SDS011;51293;59.296;18.006;2022-08-04T17:03:03;2.58;;;1.42;;
64834;SDS011;51293;59.296;18.006;2022-08-04T17:05:30;4.00;;;1.40;;
64834;SDS011;51293;59.296;18.006;2022-08-04T17:07:56;4.15;;;1.52;;
64834;SDS011;51293;59.296;18.006;2022-08-04T17:10:39;3.92;;;1.92;;
64834;SDS011;51293;59.296;18.006;2022-08-04T17:13:28;3.03;;;1.50;;
64834;SDS011;51293;59.296;18.006;2022-08-04T17:15:55;5.53;;;1.70;;
64834;SDS011;51293;59.296;18.006;2022-08-04T17:18:29;5.82;;;1.67;;
64834;SDS011;51293;59.296;18.006;2022-08-04T17:20:57;3.65;;;1.50;;
64834;SDS011;51293;59.296;18.006;2022-08-04T17:23:25;5.45;;;1.70;;
64834;SDS011;51293;59.296;18.006;2022-08-04T17:25:57;5.75;;;1.80;;
64834;SDS011;51293;59.296;18.006;2022-08-04T17:28:24;6.57;;;1.80;;
64834;SDS011;51293;59.296;18.006;2022-08-04T17:30:50;7.30;;;2.00;;
64834;SDS011;51293;59.296;18.006;2022-08-04T17:33:18;5.65;;;1.90;;
64834;SDS011;51293;59.296;18.006;2022-08-04T17:35:44;6.93;;;2.10;;
64834;SDS011;51293;59.296;18.006;2022-08-04T17:38:10;6.80;;;1.98;;
64834;SDS011;51293;59.296;18.006;2022-08-04T17:40:48;7.95;;;2.15;;
64834;SDS011;51293;59.296;18.006;2022-08-04T17:43:16;5.07;;;1.80;;
64834;SDS011;51293;59.296;18.006;2022-08-04T17:45:42;7.82;;;2.38;;
64834;SDS011;51293;59.296;18.006;2022-08-04T17:48:19;6.40;;;2.22;;
64834;SDS011;51293;59.296;18.006;2022-08-04T17:50:47;6.97;;;2.10;;
64834;SDS011;51293;59.296;18.006;2022-08-04T17:53:12;7.88;;;2.38;;
64834;SDS011;51293;59.296;18.006;2022-08-04T17:55:42;6.93;;;2.20;;
64834;SDS011;51293;59.296;18.006;2022-08-04T17:58:31;10.88;;;2.72;;
64834;SDS011;51293;59.296;18.006;2022-08-04T18:01:00;7.50;;;2.60;;
64834;SDS011;51293;59.296;18.006;2022-08-04T18:03:26;11.48;;;3.13;;
64834;SDS011;51293;59.296;18.006;2022-08-04T18:05:53;7.85;;;2.38;;
64834;SDS011;51293;59.296;18.006;2022-08-04T18:08:22;11.27;;;2.88;;
64834;SDS011;51293;59.296;18.006;2022-08-04T18:10:49;10.27;;;2.97;;
64834;SDS011;51293;59.296;18.006;2022-08-04T18:13:15;6.88;;;2.90;;
64834;SDS011;51293;59.296;18.006;2022-08-04T18:15:40;8.18;;;3.05;;
64834;SDS011;51293;59.296;18.006;2022-08-04T18:18:16;15.18;;;3.42;;
64834;SDS011;51293;59.296;18.006;2022-08-04T18:20:43;8.65;;;3.10;;
64834;SDS011;51293;59.296;18.006;2022-08-04T18:23:10;8.63;;;3.20;;
64834;SDS011;51293;59.296;18.006;2022-08-04T18:25:36;7.80;;;3.60;;
64834;SDS011;51293;59.296;18.006;2022-08-04T18:28:04;7.35;;;3.55;;
64834;SDS011;51293;59.296;18.006;2022-08-04T18:30:33;10.30;;;3.30;;
64834;SDS011;51293;59.296;18.006;2022-08-04T18:33:00;6.45;;;3.10;;
64834;SDS011;51293;59.296;18.006;2022-08-04T18:35:26;6.38;;;2.85;;
64834;SDS011;51293;59.296;18.006;2022-08-04T18:37:53;7.93;;;3.10;;
64834;SDS011;51293;59.296;18.006;2022-08-04T18:40:18;7.50;;;3.10;;
64834;SDS011;51293;59.296;18.006;2022-08-04T18:42:45;7.63;;;3.13;;
64834;SDS011;51293;59.296;18.006;2022-08-04T18:45:10;9.85;;;2.92;;
64834;SDS011;51293;59.296;18.006;2022-08-04T18:47:38;7.20;;;3.08;;
64834;SDS011;51293;59.296;18.006;2022-08-04T18:50:04;4.10;;;2.78;;
64834;SDS011;51293;59.296;18.006;2022-08-04T18:52:30;8.55;;;3.30;;
64834;SDS011;51293;59.296;18.006;2022-08-04T18:54:56;9.40;;;3.20;;
64834;SDS011;51293;59.296;18.006;2022-08-04T18:57:24;9.00;;;3.20;;
64834;SDS011;51293;59.296;18.006;2022-08-04T18:59:54;9.07;;;3.08;;
64834;SDS011;51293;59.296;18.006;2022-08-04T19:02:21;7.47;;;3.38;;
64834;SDS011;51293;59.296;18.006;2022-08-04T19:04:46;7.90;;;3.45;;
64834;SDS011;51293;59.296;18.006;2022-08-04T19:07:13;15.88;;;4.50;;
64834;SDS011;51293;59.296;18.006;2022-08-04T19:09:39;6.90;;;3.13;;
64834;SDS011;51293;59.296;18.006;2022-08-04T19:12:08;13.48;;;3.42;;
64834;SDS011;51293;59.296;18.006;2022-08-04T19:14:34;8.13;;;3.20;;
64834;SDS011;51293;59.296;18.006;2022-08-04T19:16:59;8.88;;;3.70;;
64834;SDS011;51293;59.296;18.006;2022-08-04T19:19:25;8.15;;;3.70;;
64834;SDS011;51293;59.296;18.006;2022-08-04T19:21:50;8.05;;;4.03;;
64834;SDS011;51293;59.296;18.006;2022-08-04T19:24:15;9.82;;;3.78;;
64834;SDS011;51293;59.296;18.006;2022-08-04T19:26:41;10.82;;;4.05;;
64834;SDS011;51293;59.296;18.006;2022-08-04T19:29:07;8.80;;;4.10;;
64834;SDS011;51293;59.296;18.006;2022-08-04T19:31:32;9.85;;;4.00;;
64834;SDS011;51293;59.296;18.006;2022-08-04T19:33:58;10.75;;;3.97;;
64834;SDS011;51293;59.296;18.006;2022-08-04T19:36:23;6.68;;;4.05;;